Time;durP1;ratioP1;P1;durP2;ratioP2;P2;SDS_P1;SDS_P2;PMS_P1;PMS_P2;Temp;Humidity;BMP_temperature;BMP_pressure;BME280_temperature;BME280_humidity;BME280_pressure;Samples;Min_cycle;Max_cycle;Signal;HPM_P1;HPM_P2
2021/07/08 00:01:23;;;;;;;;;19.50;18.00;;;;;18.78;100.00;101539.03;3723850;37;21273;-59
2021/07/08 00:03:51;;;;;;;;;17.25;17.25;;;;;18.80;100.00;101547.88;3723944;37;21238;-58
2021/07/08 00:06:18;;;;;;;;;17.75;17.25;;;;;18.79;100.00;101543.47;3724198;37;20967;-58
2021/07/08 00:08:45;;;;;;;;;20.50;19.00;;;;;18.82;100.00;101544.94;3724503;37;21258;-59
2021/07/08 00:11:15;;;;;;;;;19.25;18.75;;;;;18.81;100.00;101538.59;3724486;37;21276;-60
2021/07/08 00:13:47;;;;;;;;;16.75;16.75;;;;;18.82;100.00;101539.44;3724025;37;21251;-59
2021/07/08 00:16:13;;;;;;;;;20.25;19.50;;;;;18.83;100.00;101530.16;3724487;37;21240;-59
2021/07/08 00:18:40;;;;;;;;;3.75;3.75;;;;;18.79;100.00;101535.22;3724494;38;21228;-59
2021/07/08 00:21:07;;;;;;;;;18.75;18.00;;;;;18.75;100.00;101539.47;3724426;37;20912;-60
2021/07/08 00:23:34;;;;;;;;;21.00;19.75;;;;;18.72;100.00;101537.12;3724516;38;21228;-60
2021/07/08 00:26:02;;;;;;;;;20.00;20.00;;;;;18.67;100.00;101534.22;3725011;37;21224;-59
2021/07/08 00:28:29;;;;;;;;;19.25;18.75;;;;;18.68;100.00;101540.56;3725280;37;21295;-60
2021/07/08 00:30:56;;;;;;;;;20.00;20.00;;;;;18.70;100.00;101542.03;3724490;37;21222;-59
2021/07/08 00:33:24;;;;;;;;;21.75;20.50;;;;;18.64;100.00;101523.69;3724469;37;21207;-58
2021/07/08 00:35:56;;;;;;;;;24.75;21.75;;;;;18.68;100.00;101533.16;3724101;37;21231;-59
2021/07/08 00:38:22;;;;;;;;;16.50;16.50;;;;;18.70;100.00;101533.81;3724489;38;21200;-60
2021/07/08 00:40:49;;;;;;;;;18.50;14.75;;;;;18.72;100.00;101537.12;3724374;37;21202;-60
2021/07/08 00:43:15;;;;;;;;;17.25;17.25;;;;;18.69;100.00;101540.34;3724275;38;21208;-60
2021/07/08 00:45:43;;;;;;;;;19.00;18.50;;;;;18.67;100.00;101542.44;3724352;37;21196;-59
2021/07/08 00:48:09;;;;;;;;;18.75;17.25;;;;;18.64;100.00;101542.88;3724362;37;21202;-60
2021/07/08 00:50:46;;;;;;;;;20.25;20.25;;;;;18.59;100.00;101542.63;3724449;37;21206;-59
2021/07/08 00:53:15;;;;;;;;;18.00;18.00;;;;;18.52;100.00;101541.78;3724485;37;21191;-60
2021/07/08 00:55:43;;;;;;;;;16.00;16.00;;;;;18.48;100.00;101544.12;3724427;38;21181;-60
2021/07/08 00:58:15;;;;;;;;;18.75;18.75;;;;;18.42;100.00;101542.22;3724231;37;21195;-59
2021/07/08 01:00:42;;;;;;;;;17.50;17.50;;;;;18.40;100.00;101546.22;3724400;37;21199;-59
2021/07/08 01:03:10;;;;;;;;;18.75;17.00;;;;;18.41;100.00;101548.75;3724326;37;21165;-61
2021/07/08 01:05:44;;;;;;;;;19.00;19.00;;;;;18.36;100.00;101544.97;3725147;37;21185;-59
2021/07/08 01:08:13;;;;;;;;;18.50;17.50;;;;;18.36;100.00;101547.69;3725443;38;21182;-60
2021/07/08 01:10:43;;;;;;;;;17.75;17.75;;;;;18.35;100.00;101548.75;3724685;38;21150;-60
2021/07/08 01:13:10;;;;;;;;;18.50;17.00;;;;;18.33;100.00;101540.75;3723867;38;21180;-60
2021/07/08 01:15:37;;;;;;;;;18.50;18.00;;;;;18.28;100.00;101546.00;3724630;38;21157;-61
2021/07/08 01:18:07;;;;;;;;;16.00;16.00;;;;;18.27;100.00;101548.97;3724317;38;21149;-61
2021/07/08 01:20:36;;;;;;;;;18.50;18.00;;;;;18.28;100.00;101553.38;3724471;38;21167;-61
2021/07/08 01:23:03;;;;;;;;;17.25;17.00;;;;;18.31;100.00;101552.97;3723812;37;21159;-61
2021/07/08 01:25:39;;;;;;;;;15.00;15.00;;;;;18.31;100.00;101550.22;3724352;38;21160;-61
2021/07/08 01:28:08;;;;;;;;;15.50;15.50;;;;;18.28;100.00;101540.53;3724531;38;21145;-60
2021/07/08 01:30:38;;;;;;;;;16.50;16.25;;;;;18.23;100.00;101548.53;3724590;38;21159;-61
2021/07/08 01:33:08;;;;;;;;;17.25;16.75;;;;;18.24;100.00;101555.69;3724522;37;21152;-61
2021/07/08 01:35:36;;;;;;;;;21.25;20.25;;;;;18.20;100.00;101558.00;3724134;38;21133;-61
2021/07/08 01:38:07;;;;;;;;;14.00;13.75;;;;;18.18;100.00;101554.66;3724079;37;21109;-61
2021/07/08 01:40:34;;;;;;;;;16.50;14.50;;;;;18.18;100.00;101554.66;3724480;37;21114;-60
2021/07/08 01:43:01;;;;;;;;;13.25;13.25;;;;;18.12;100.00;101551.94;3724522;38;21139;-60
2021/07/08 01:45:30;;;;;;;;;14.00;13.25;;;;;18.18;100.00;101565.63;3724654;38;21071;-61
2021/07/08 01:47:57;;;;;;;;;15.25;15.25;;;;;18.22;100.00;101559.69;3724649;38;21093;-61
2021/07/08 01:50:26;;;;;;;;;16.75;16.00;;;;;18.19;100.00;101558.25;3724531;38;21121;-60
2021/07/08 01:52:54;;;;;;;;;12.75;12.75;;;;;18.19;100.00;101558.25;3724063;37;21110;-60
2021/07/08 01:55:23;;;;;;;;;15.75;15.75;;;;;18.18;100.00;101570.28;3724474;37;21054;-60
2021/07/08 01:57:52;;;;;;;;;13.25;13.25;;;;;18.16;100.00;101569.63;3724164;38;21100;-61
2021/07/08 02:00:22;;;;;;;;;15.50;15.00;;;;;18.13;100.00;101567.31;3724549;38;21085;-61
2021/07/08 02:02:54;;;;;;;;;17.50;16.75;;;;;18.10;100.00;101573.22;3724177;37;21077;-60
2021/07/08 02:05:20;;;;;;;;;15.50;15.25;;;;;18.08;100.00;101575.31;3724519;38;21104;-59
2021/07/08 02:07:51;;;;;;;;;16.50;15.75;;;;;18.05;100.00;101571.09;3724265;38;21091;-60
2021/07/08 02:10:19;;;;;;;;;14.50;14.50;;;;;18.06;100.00;101578.25;3723970;37;21074;-59
2021/07/08 02:12:46;;;;;;;;;16.00;15.00;;;;;18.07;100.00;101582.69;3724524;38;21083;-60
2021/07/08 02:15:14;;;;;;;;;15.00;14.75;;;;;18.05;100.00;101575.72;3724338;38;21078;-59
2021/07/08 02:17:41;;;;;;;;;16.75;16.75;;;;;18.00;100.00;101578.25;3724376;38;21071;-60
2021/07/08 02:20:16;;;;;;;;;15.50;14.75;;;;;17.92;100.00;101581.16;3724414;37;21093;-60
2021/07/08 02:22:44;;;;;;;;;16.00;16.00;;;;;17.90;100.00;101577.78;3724149;38;21060;-60
2021/07/08 02:25:13;;;;;;;;;15.50;14.75;;;;;17.87;100.00;101579.03;3724092;38;21091;-60
2021/07/08 02:27:41;;;;;;;;;14.25;14.25;;;;;17.86;100.00;101577.34;3724076;38;21041;-60
2021/07/08 02:30:16;;;;;;;;;16.00;13.25;;;;;17.90;100.00;101580.53;3724522;37;21062;-60
2021/07/08 02:32:46;;;;;;;;;15.25;15.00;;;;;17.91;100.00;101582.22;3724021;38;21039;-60
2021/07/08 02:35:15;;;;;;;;;14.50;14.00;;;;;17.94;100.00;101581.81;3724492;37;21038;-60
2021/07/08 02:37:42;;;;;;;;;12.50;12.50;;;;;17.90;100.00;101586.00;3724083;37;21055;-60
2021/07/08 02:40:16;;;;;;;;;12.75;12.75;;;;;17.86;100.00;101589.16;3724517;38;21055;-60
2021/07/08 02:42:50;;;;;;;;;16.00;15.00;;;;;17.80;100.00;101595.47;3723974;37;21021;-61
2021/07/08 02:45:19;;;;;;;;;16.00;15.00;;;;;17.77;100.00;101589.53;3724447;38;21027;-59
2021/07/08 02:47:46;;;;;;;;;18.50;17.75;;;;;17.85;100.00;101594.84;3724154;37;21047;-60
2021/07/08 02:50:13;;;;;;;;;17.50;16.75;;;;;17.85;100.00;101587.47;3724503;37;21040;-60
2021/07/08 02:52:47;;;;;;;;;14.75;14.75;;;;;17.85;100.00;101594.84;3724334;38;21013;-60
2021/07/08 02:55:15;;;;;;;;;16.75;15.75;;;;;17.83;100.00;101594.19;3724760;38;21035;-60
2021/07/08 02:57:47;;;;;;;;;12.25;12.25;;;;;17.79;100.00;101592.94;3724057;38;21008;-60
2021/07/08 03:00:22;;;;;;;;;13.25;13.25;;;;;17.78;100.00;101588.50;3724074;37;21959;-61
2021/07/08 03:02:49;;;;;;;;;15.00;14.00;;;;;17.80;100.00;101591.88;3724244;38;21002;-60
2021/07/08 03:05:17;;;;;;;;;16.25;15.75;;;;;17.86;100.00;101599.28;3724072;38;21010;-60
2021/07/08 03:07:44;;;;;;;;;14.75;14.00;;;;;17.92;100.00;101600.34;3724121;38;21009;-60
2021/07/08 03:10:14;;;;;;;;;11.00;11.00;;;;;18.02;100.00;101601.62;3724439;37;21008;-59
2021/07/08 03:12:41;;;;;;;;;16.25;15.25;;;;;18.01;100.00;101602.69;3724109;38;21981;-59
2021/07/08 03:15:10;;;;;;;;;14.50;14.00;;;;;18.04;100.00;101601.44;3724651;37;21014;-58
2021/07/08 03:17:38;;;;;;;;;14.00;14.00;;;;;18.06;100.00;101605.66;3724338;37;22071;-60
2021/07/08 03:20:11;;;;;;;;;14.50;14.50;;;;;18.08;100.00;101608.19;3724397;37;21998;-59
2021/07/08 03:22:43;;;;;;;;;13.50;13.50;;;;;18.17;100.00;101613.25;3724568;37;21999;-59
2021/07/08 03:25:18;;;;;;;;;15.50;14.75;;;;;18.25;100.00;101608.59;3724363;37;21999;-60
2021/07/08 03:27:46;;;;;;;;;16.50;15.75;;;;;18.31;100.00;101613.25;3724581;37;21964;-60
2021/07/08 03:30:15;;;;;;;;;31.75;30.00;;;;;18.54;100.00;101624.69;3724644;37;21992;-60
2021/07/08 03:32:44;;;;;;;;;20.25;18.75;;;;;18.62;100.00;101623.66;3724374;38;21736;-60
2021/07/08 03:35:11;;;;;;;;;18.25;17.50;;;;;18.61;100.00;101621.97;3724547;38;21769;-60
2021/07/08 03:37:37;;;;;;;;;14.75;14.50;;;;;18.62;100.00;101624.50;3724625;38;21953;-61
2021/07/08 03:40:05;;;;;;;;;14.50;14.50;;;;;18.69;100.00;101632.72;3724669;37;21967;-61
2021/07/08 03:42:36;;;;;;;;;16.50;15.75;;;;;18.78;100.00;101631.44;3724839;38;21956;-61
2021/07/08 03:45:09;;;;;;;;;13.75;13.75;;;;;18.92;100.00;101627.63;3724226;37;21966;-62
2021/07/08 03:47:35;;;;;;;;;13.50;13.00;;;;;19.10;100.00;101632.47;3724662;38;21968;-62
2021/07/08 03:50:03;;;;;;;;;16.50;16.50;;;;;19.27;100.00;101633.69;3724604;38;21954;-61
2021/07/08 03:52:29;;;;;;;;;15.50;15.50;;;;;19.45;100.00;101635.75;3724419;38;21944;-61
2021/07/08 03:54:56;;;;;;;;;17.25;16.25;;;;;19.58;100.00;101634.91;3724512;37;21950;-61
2021/07/08 03:57:23;;;;;;;;;17.50;17.50;;;;;19.67;100.00;101633.59;3724457;37;21951;-60
2021/07/08 03:59:54;;;;;;;;;22.25;22.00;;;;;19.70;100.00;101635.91;3724126;37;21930;-60
2021/07/08 04:02:23;;;;;;;;;21.25;21.25;;;;;19.73;100.00;101635.47;3723920;37;21948;-60
2021/07/08 04:04:50;;;;;;;;;22.50;21.50;;;;;19.82;100.00;101631.41;3724449;38;21933;-61
2021/07/08 04:07:19;;;;;;;;;22.25;21.25;;;;;19.95;100.00;101630.50;3724580;37;21743;-59
2021/07/08 04:09:46;;;;;;;;;21.00;20.00;;;;;20.09;100.00;101634.84;3724329;37;21746;-61
2021/07/08 04:12:13;;;;;;;;;23.50;22.50;;;;;20.22;100.00;101633.94;3724512;37;21717;-60
2021/07/08 04:14:40;;;;;;;;;25.00;24.50;;;;;20.26;100.00;101637.94;3724193;38;21770;-60
2021/07/08 04:17:06;;;;;;;;;23.50;23.50;;;;;20.39;100.00;101644.19;3724596;38;21763;-60
2021/07/08 04:19:34;;;;;;;;;25.50;25.50;;;;;20.55;100.00;101647.47;3724617;38;21252;-61
2021/07/08 04:22:00;;;;;;;;;25.75;25.25;;;;;20.64;100.00;101641.47;3724113;38;21712;-60
2021/07/08 04:24:27;;;;;;;;;31.25;30.25;;;;;20.76;100.00;101647.09;3724583;38;21731;-62
2021/07/08 04:26:53;;;;;;;;;26.00;25.00;;;;;20.87;100.00;101651.00;3724164;37;21703;-59
2021/07/08 04:29:20;;;;;;;;;30.00;29.75;;;;;20.70;100.00;101643.34;3724697;37;21728;-61
2021/07/08 04:31:46;;;;;;;;;23.00;23.00;;;;;20.79;100.00;101647.50;3724423;38;21687;-61
2021/07/08 04:34:13;;;;;;;;;27.75;27.25;;;;;20.99;100.00;101649.22;3724729;37;21746;-61
2021/07/08 04:36:40;;;;;;;;;25.50;25.50;;;;;20.89;99.34;101641.47;3724550;37;21712;-61
2021/07/08 04:39:06;;;;;;;;;26.00;26.00;;;;;20.97;99.42;101638.44;3724628;37;21678;-62
2021/07/08 04:41:32;;;;;;;;;30.25;28.50;;;;;21.08;98.98;101643.19;3724622;37;21729;-60
2021/07/08 04:43:59;;;;;;;;;27.00;26.00;;;;;21.13;98.28;101643.34;3724576;37;21696;-62
2021/07/08 04:46:28;;;;;;;;;25.00;25.00;;;;;21.19;98.44;101649.88;3724762;38;21611;-60
2021/07/08 04:49:01;;;;;;;;;27.00;26.00;;;;;21.33;98.28;101650.56;3724658;37;21652;-61
2021/07/08 04:51:36;;;;;;;;;23.75;23.75;;;;;21.37;97.99;101649.06;3724565;37;21884;-61
2021/07/08 04:54:03;;;;;;;;;23.75;23.00;;;;;21.43;97.30;101653.66;3724646;37;21867;-61
2021/07/08 04:56:29;;;;;;;;;23.00;23.00;;;;;21.59;97.73;101661.31;3724500;38;21697;-61
2021/07/08 04:58:56;;;;;;;;;20.50;20.50;;;;;21.64;96.56;101664.22;3724748;38;21877;-62
2021/07/08 05:01:24;;;;;;;;;24.25;22.50;;;;;21.72;96.03;101668.59;3724390;38;21867;-60
2021/07/08 05:03:51;;;;;;;;;18.00;18.00;;;;;21.76;94.46;101672.56;3724368;37;21873;-59
2021/07/08 05:06:17;;;;;;;;;17.50;16.75;;;;;21.80;94.07;101674.63;3724640;38;21845;-61
2021/07/08 05:08:44;;;;;;;;;16.75;16.75;;;;;21.84;94.02;101672.22;3724559;38;21839;-61
2021/07/08 05:11:10;;;;;;;;;13.00;13.00;;;;;21.90;94.07;101674.06;3724410;37;21858;-60
2021/07/08 05:13:37;;;;;;;;;18.50;18.50;;;;;22.00;94.37;101670.75;3724634;37;21841;-61
2021/07/08 05:16:04;;;;;;;;;15.25;15.25;;;;;22.12;94.85;101671.69;3724627;38;21830;-62
2021/07/08 05:18:30;;;;;;;;;19.25;18.75;;;;;22.20;93.95;101665.00;3724765;38;21820;-57
2021/07/08 05:20:57;;;;;;;;;18.50;18.50;;;;;22.20;94.23;101665.00;3725421;38;21849;-65
2021/07/08 05:23:26;;;;;;;;;17.50;17.25;;;;;22.28;93.74;101678.47;3724762;37;21866;-57
2021/07/08 05:25:58;;;;;;;;;15.75;15.75;;;;;22.37;93.46;101672.38;3724780;37;21815;-57
2021/07/08 05:28:25;;;;;;;;;15.25;15.25;;;;;22.43;92.64;101678.88;3724192;37;21829;-59
2021/07/08 05:30:52;;;;;;;;;18.25;18.00;;;;;22.48;92.47;101680.91;3724074;37;21833;-59
2021/07/08 05:33:18;;;;;;;;;17.00;16.75;;;;;22.57;91.45;101677.59;3724559;38;21828;-59
2021/07/08 05:35:45;;;;;;;;;15.75;15.00;;;;;22.61;91.46;101670.53;3724567;37;21796;-60
2021/07/08 05:38:12;;;;;;;;;17.25;17.25;;;;;22.71;91.03;101675.47;3724727;38;21823;-60
2021/07/08 05:40:38;;;;;;;;;16.75;16.75;;;;;22.73;91.34;101682.44;3724515;37;21820;-64
2021/07/08 05:43:06;;;;;;;;;18.75;18.75;;;;;22.63;91.28;101682.16;3724544;37;21799;-65
2021/07/08 05:45:33;;;;;;;;;18.75;17.50;;;;;22.66;92.08;101672.56;3724888;38;21809;-65
2021/07/08 05:47:59;;;;;;;;;20.00;19.75;;;;;22.83;91.64;101672.78;3724815;38;21801;-63
2021/07/08 05:50:28;;;;;;;;;19.75;19.00;;;;;22.91;91.19;101675.16;3724731;37;21774;-65
2021/07/08 05:52:54;;;;;;;;;16.75;15.75;;;;;22.77;91.33;101669.00;3724146;38;21783;-65
2021/07/08 05:55:22;;;;;;;;;17.75;17.75;;;;;22.78;91.92;101678.97;3724828;37;21793;-66
2021/07/08 05:57:51;;;;;;;;;15.50;15.00;;;;;22.80;92.00;101670.47;3724488;38;21795;-66
2021/07/08 06:00:19;;;;;;;;;14.50;14.50;;;;;23.01;91.59;101684.53;3724390;38;21768;-70
2021/07/08 06:02:47;;;;;;;;;18.75;18.75;;;;;23.14;90.77;101683.47;3724876;38;21771;-69
2021/07/08 06:05:14;;;;;;;;;17.00;17.00;;;;;23.26;90.44;101686.22;3724476;37;21781;-68
2021/07/08 06:07:43;;;;;;;;;18.00;17.50;;;;;23.33;89.09;101684.19;3724662;38;21764;-66
2021/07/08 06:10:13;;;;;;;;;15.50;15.00;;;;;23.35;87.97;101673.75;3724502;37;21743;-66
2021/07/08 06:12:41;;;;;;;;;13.00;13.00;;;;;23.48;87.06;101678.16;3724291;38;21753;-69
2021/07/08 06:15:12;;;;;;;;;16.25;16.25;;;;;23.58;86.63;101682.00;3724358;37;21771;-69
2021/07/08 06:17:38;;;;;;;;;12.50;12.50;;;;;23.76;85.39;101692.94;3724216;37;21445;-67
2021/07/08 06:20:17;;;;;;;;;;;;;;;;;;;;;
2021/07/08 06:22:45;;;;;;;;;14.00;13.75;;;;;24.03;83.59;101695.13;3724852;37;21693;-68
2021/07/08 06:25:13;;;;;;;;;12.25;12.25;;;;;24.09;82.31;101686.69;3724546;37;21735;-67
2021/07/08 06:27:42;;;;;;;;;16.25;16.25;;;;;24.11;82.57;101697.50;3724042;38;21759;-67
2021/07/08 06:30:09;;;;;;;;;13.00;13.00;;;;;24.12;83.44;101692.81;3724142;38;21735;-68
2021/07/08 06:32:37;;;;;;;;;12.25;11.50;;;;;24.16;81.29;101692.06;3724088;38;21688;-68
2021/07/08 06:35:07;;;;;;;;;13.00;13.00;;;;;24.09;82.28;101697.75;3724135;38;21687;-67
2021/07/08 06:37:37;;;;;;;;;13.00;12.50;;;;;24.08;83.90;101700.75;3724922;38;21728;-67
2021/07/08 06:40:10;;;;;;;;;15.00;15.00;;;;;24.32;84.13;101693.25;3724795;38;21741;-69
2021/07/08 06:42:38;;;;;;;;;14.50;14.50;;;;;24.40;83.62;101703.94;3724245;38;21728;-66
2021/07/08 06:45:11;;;;;;;;;19.75;18.25;;;;;24.33;82.90;101701.31;3724627;38;21715;-67
2021/07/08 06:47:47;;;;;;;;;15.50;14.50;;;;;24.32;83.27;101701.56;3723076;38;21724;-69
2021/07/08 06:50:15;;;;;;;;;13.25;13.25;;;;;24.48;82.95;101705.41;3724242;37;21707;-69
2021/07/08 06:52:43;;;;;;;;;14.00;13.00;;;;;24.53;83.18;101700.81;3724146;37;21699;-65
2021/07/08 06:55:14;;;;;;;;;14.25;14.25;;;;;24.63;82.68;101702.94;3724252;38;21710;-67
2021/07/08 06:57:51;;;;;;;;;15.00;14.00;;;;;24.71;82.42;101705.31;3724192;37;21716;-68
2021/07/08 07:00:23;;;;;;;;;13.00;12.00;;;;;24.82;80.88;101690.56;3724349;37;21706;-67
2021/07/08 07:02:51;;;;;;;;;16.50;16.50;;;;;24.96;79.58;101704.91;3724348;37;21705;-68
2021/07/08 07:05:18;;;;;;;;;11.50;11.50;;;;;25.04;77.65;101690.66;3724906;37;21689;-69
2021/07/08 07:07:47;;;;;;;;;10.00;10.00;;;;;25.15;76.92;101699.97;3724491;38;21639;-69
2021/07/08 07:10:20;;;;;;;;;10.25;10.25;;;;;25.31;77.80;101701.88;3725023;37;21711;-70
2021/07/08 07:12:48;;;;;;;;;13.00;13.00;;;;;25.36;76.50;101700.03;3725336;37;21702;-69
2021/07/08 07:15:18;;;;;;;;;12.00;12.00;;;;;25.37;73.29;101710.03;3724822;37;21669;-70
2021/07/08 07:17:47;;;;;;;;;12.00;12.00;;;;;25.36;74.82;101705.59;3724627;37;21676;-70
2021/07/08 07:20:15;;;;;;;;;11.00;10.50;;;;;25.37;74.05;101707.25;3725534;37;21688;-70
2021/07/08 07:22:47;;;;;;;;;9.75;9.50;;;;;25.43;74.34;101704.56;3729868;37;21620;-69
2021/07/08 07:25:22;;;;;;;;;11.00;11.00;;;;;25.42;72.93;101705.66;3725823;37;21618;-70
2021/07/08 07:28:01;;;;;;;;;9.00;9.00;;;;;25.42;72.79;101705.66;3729721;37;21604;-70
2021/07/08 07:30:29;;;;;;;;;12.75;12.75;;;;;25.40;73.04;101712.28;3727026;37;21188;-70
2021/07/08 07:33:16;;;;;;;;;9.00;9.00;;;;;25.62;72.89;101711.47;3724607;38;21659;-68
2021/07/08 07:35:44;;;;;;;;;9.25;9.25;;;;;25.74;72.84;101709.47;3725358;38;21624;-70
2021/07/08 07:38:11;;;;;;;;;11.25;10.50;;;;;25.91;72.78;101707.47;3724581;37;21610;-70
2021/07/08 07:40:42;;;;;;;;;14.00;14.00;;;;;26.04;71.31;101711.78;3724692;37;21580;-68
2021/07/08 07:43:10;;;;;;;;;11.25;11.25;;;;;26.17;69.40;101708.59;3724959;38;21647;-69
2021/07/08 07:45:36;;;;;;;;;7.25;7.25;;;;;26.15;66.55;101716.34;3724880;38;21597;-69
2021/07/08 07:48:03;;;;;;;;;7.50;7.50;;;;;26.09;66.09;101713.78;3725030;37;21496;-70
2021/07/08 07:50:32;;;;;;;;;7.50;7.50;;;;;26.17;66.13;101713.31;3724985;38;21499;-67
2021/07/08 07:53:01;;;;;;;;;4.00;4.00;;;;;26.16;64.97;101711.63;3724921;37;21511;-70
2021/07/08 07:55:33;;;;;;;;;12.50;12.50;;;;;26.20;67.51;101710.88;3724579;37;21492;-68
2021/07/08 07:58:01;;;;;;;;;9.50;9.50;;;;;26.40;67.50;101715.84;3724488;37;21629;-69
2021/07/08 08:00:30;;;;;;;;;11.25;11.25;;;;;26.47;67.92;101701.75;3724855;37;21485;-69
2021/07/08 08:02:57;;;;;;;;;8.00;8.00;;;;;26.54;66.63;101708.75;3724792;37;21524;-70
2021/07/08 08:05:37;;;;;;;;;9.25;9.00;;;;;26.61;66.58;101712.16;3724658;38;21489;-70
2021/07/08 08:10:51;;;;;;;;;8.75;8.00;;;;;26.59;66.32;101713.53;3724942;38;21542;-71
2021/07/08 08:13:20;;;;;;;;;4.50;4.50;;;;;26.61;66.54;101711.31;3724085;37;21339;-69
2021/07/08 08:15:53;;;;;;;;;10.00;10.00;;;;;26.74;65.26;101712.84;3723590;37;21483;-69
2021/07/08 08:18:21;;;;;;;;;11.50;11.00;;;;;26.76;65.40;101707.84;3723644;38;21536;-70
2021/07/08 08:20:53;;;;;;;;;11.25;10.75;;;;;26.84;65.32;101707.38;3724148;38;21575;-66
2021/07/08 08:23:23;;;;;;;;;9.00;9.00;;;;;26.83;64.49;101712.09;3724100;38;21476;-72
2021/07/08 08:25:50;;;;;;;;;9.50;9.50;;;;;26.88;65.83;101712.16;3724183;38;21450;-70
2021/07/08 08:28:17;;;;;;;;;9.75;9.75;;;;;27.02;65.83;101710.63;3724333;38;21426;-70
2021/07/08 08:30:44;;;;;;;;;10.75;10.00;;;;;26.92;65.14;101702.19;3724760;38;21524;-68
2021/07/08 08:33:11;;;;;;;;;11.50;11.00;;;;;26.49;67.28;101707.87;3724850;37;21506;-70
2021/07/08 08:35:39;;;;;;;;;12.00;12.00;;;;;26.41;67.40;101705.56;3724702;37;21526;-70
2021/07/08 08:38:12;;;;;;;;;9.50;9.25;;;;;26.57;68.18;101699.06;3724729;38;21525;-67
2021/07/08 08:40:39;;;;;;;;;9.50;9.50;;;;;26.83;66.76;101711.25;3724487;37;21447;-70
2021/07/08 08:43:07;;;;;;;;;9.00;9.00;;;;;26.88;66.60;101705.75;3724606;37;21417;-70
2021/07/08 08:45:45;;;;;;;;;9.25;9.25;;;;;26.94;67.09;101702.75;3724872;38;21433;-70
2021/07/08 08:48:20;;;;;;;;;11.75;11.50;;;;;27.18;67.30;101703.22;3725085;38;21546;-70
2021/07/08 08:50:51;;;;;;;;;10.00;10.00;;;;;27.30;65.55;101706.66;3724322;37;21496;-71
2021/07/08 08:53:20;;;;;;;;;7.75;7.75;;;;;27.33;64.85;101706.12;3724643;37;21311;-69
2021/07/08 08:55:49;;;;;;;;;11.25;10.75;;;;;27.40;65.64;101705.88;3724561;38;21250;-70
2021/07/08 08:58:19;;;;;;;;;8.75;8.75;;;;;27.49;64.85;101715.41;3724764;37;21318;-70
2021/07/08 09:00:54;;;;;;;;;9.50;9.50;;;;;27.35;64.79;101708.63;3724591;38;21215;-71
2021/07/08 09:03:28;;;;;;;;;8.25;8.25;;;;;27.40;65.18;101699.50;3725392;38;21219;-69
2021/07/08 09:06:07;;;;;;;;;12.75;12.50;;;;;27.58;65.38;101712.94;3725440;37;21226;-70
2021/07/08 09:08:36;;;;;;;;;10.75;10.75;;;;;27.71;64.75;101698.56;3724835;38;21329;-66
2021/07/08 09:11:16;;;;;;;;;6.50;6.50;;;;;27.63;63.29;101705.47;3724873;38;21331;-68
2021/07/08 09:13:51;;;;;;;;;10.00;10.00;;;;;27.60;55.19;101706.03;3724446;37;21241;-68
2021/07/08 09:16:40;;;;;;;;;6.75;6.75;;;;;27.48;54.50;101707.34;3724352;38;21316;-67
2021/07/08 09:19:23;;;;;;;;;11.00;10.75;;;;;27.48;55.05;101701.78;3724469;37;21221;-68
2021/07/08 09:21:55;;;;;;;;;8.25;8.25;;;;;27.54;54.29;101703.47;3725007;38;21276;-69
2021/07/08 09:24:34;;;;;;;;;9.25;9.25;;;;;27.48;56.00;101701.78;3724798;37;21205;-69
2021/07/08 09:27:07;;;;;;;;;1001.60;851.60;;;;;27.60;56.04;101713.53;3724280;37;21215;-67
2021/07/08 09:29:48;;;;;;;;;57.75;47.25;;;;;27.71;55.65;101704.13;3725100;38;18185;-68
2021/07/08 09:32:17;;;;;;;;;26.50;25.75;;;;;27.82;55.88;101702.25;3724471;37;21196;-67
2021/07/08 09:34:56;;;;;;;;;10.50;10.50;;;;;27.95;56.18;101702.59;3724719;37;21115;-69
2021/07/08 09:37:30;;;;;;;;;9.50;8.75;;;;;28.18;53.75;101706.84;3725078;37;21283;-69
2021/07/08 09:40:08;;;;;;;;;10.50;10.00;;;;;28.24;53.55;101708.56;3724899;37;21205;-67
2021/07/08 09:42:44;;;;;;;;;9.25;9.25;;;;;28.32;53.37;101705.25;3724487;37;21180;-67
2021/07/08 09:45:13;;;;;;;;;4.25;4.25;;;;;28.26;51.42;101714.69;3724978;37;21164;-68
2021/07/08 09:47:45;;;;;;;;;8.75;8.75;;;;;28.31;52.35;101713.88;3724941;37;21195;-68
2021/07/08 09:50:38;;;;;;;;;8.75;8.75;;;;;28.49;52.19;101715.31;3724623;37;21233;-68
2021/07/08 09:53:08;;;;;;;;;9.75;9.75;;;;;28.63;52.57;101716.44;3724527;38;21414;-68
2021/07/08 09:56:00;;;;;;;;;6.50;6.50;;;;;28.73;51.17;101718.37;3725171;38;21431;-69
2021/07/08 09:58:28;;;;;;;;;7.50;7.00;;;;;28.76;52.16;101710.31;3725726;38;21348;-67
2021/07/08 10:00:56;;;;;;;;;6.75;6.75;;;;;28.81;51.13;101709.47;3725594;37;21169;-68
2021/07/08 10:03:22;;;;;;;;;6.50;6.50;;;;;28.65;50.69;101689.97;3725105;37;21335;-69
2021/07/08 10:05:51;;;;;;;;;7.25;7.00;;;;;28.87;51.09;101700.88;3725003;37;21318;-68
2021/07/08 10:08:24;;;;;;;;;7.25;7.25;;;;;29.12;50.52;101700.03;3724587;37;21323;-68
2021/07/08 10:10:51;;;;;;;;;6.00;6.00;;;;;28.99;48.96;101706.19;3725287;38;21326;-69
2021/07/08 10:13:19;;;;;;;;;6.00;6.00;;;;;28.92;49.30;101702.84;3724631;37;21318;-68
2021/07/08 10:15:48;;;;;;;;;8.25;7.50;;;;;28.98;48.95;101705.34;3725073;37;21307;-70
2021/07/08 10:18:16;;;;;;;;;7.00;7.00;;;;;29.19;49.78;101692.22;3724192;38;21311;-69
2021/07/08 10:20:48;;;;;;;;;11.00;11.00;;;;;29.32;48.63;101688.00;3724637;37;21318;-68
2021/07/08 10:23:20;;;;;;;;;8.25;8.25;;;;;29.48;48.58;101705.59;3724357;37;21366;-69
2021/07/08 10:25:49;;;;;;;;;9.25;9.25;;;;;29.32;48.48;101697.22;3724591;37;21502;-68
2021/07/08 10:28:18;;;;;;;;;6.75;6.25;;;;;29.38;47.60;101694.41;3724808;37;21298;-69
2021/07/08 10:30:46;;;;;;;;;7.75;7.75;;;;;29.39;48.27;101693.31;3723978;38;21279;-69
2021/07/08 10:33:19;;;;;;;;;7.50;7.50;;;;;29.58;47.85;101706.41;3724715;38;21323;-68
2021/07/08 10:35:51;;;;;;;;;7.50;7.50;;;;;29.50;47.48;101698.59;3724502;38;21224;-70
2021/07/08 10:38:32;;;;;;;;;9.00;9.00;;;;;29.40;48.11;101684.66;3724327;37;21264;-70
2021/07/08 10:41:20;;;;;;;;;9.25;9.25;;;;;29.26;47.34;101700.28;3725227;37;21258;-70
2021/07/08 10:43:47;;;;;;;;;8.25;8.25;;;;;29.29;49.30;101694.16;3725009;38;21370;-69
2021/07/08 10:46:16;;;;;;;;;11.00;8.75;;;;;29.45;48.56;101690.25;3724543;37;21260;-69
2021/07/08 10:48:51;;;;;;;;;9.00;9.00;;;;;29.67;48.28;101689.06;3725441;37;21290;-69
2021/07/08 10:51:47;;;;;;;;;9.75;9.75;;;;;29.91;47.88;101679.75;3724575;38;21310;-69
2021/07/08 10:54:28;;;;;;;;;7.75;7.75;;;;;30.08;47.18;101678.59;3725123;38;21234;-69
2021/07/08 10:56:57;;;;;;;;;8.25;8.00;;;;;30.11;47.67;101672.44;3724767;37;21239;-69
2021/07/08 10:59:36;;;;;;;;;8.75;8.75;;;;;30.32;46.59;101673.13;3724664;37;21259;-70
2021/07/08 11:02:04;;;;;;;;;9.75;9.25;;;;;30.28;45.83;101672.88;3724521;37;21241;-68
2021/07/08 11:04:47;;;;;;;;;9.50;9.00;;;;;30.18;45.88;101675.72;3725092;37;21253;-70
2021/07/08 11:07:19;;;;;;;;;7.75;7.25;;;;;30.27;45.88;101671.19;3725130;38;21255;-69
2021/07/08 11:10:15;;;;;;;;;7.75;7.75;;;;;30.15;45.93;101663.19;3724733;37;21221;-70
2021/07/08 11:12:43;;;;;;;;;10.25;10.00;;;;;30.29;47.59;101666.16;3725040;37;21217;-68
2021/07/08 11:15:11;;;;;;;;;11.25;11.00;;;;;30.08;47.24;101665.47;3725309;37;21287;-69
2021/07/08 11:17:42;;;;;;;;;9.25;9.25;;;;;30.00;46.60;101662.44;3725321;37;21318;-69
2021/07/08 11:20:31;;;;;;;;;7.25;7.25;;;;;29.95;46.97;101664.09;3725469;37;21020;-68
2021/07/08 11:23:37;;;;;;;;;9.25;9.25;;;;;30.01;47.68;101658.53;3725433;38;20784;-68
2021/07/08 11:26:04;;;;;;;;;12.50;11.75;;;;;30.20;47.78;101665.09;3725326;38;21306;-66
2021/07/08 11:28:33;;;;;;;;;11.00;9.00;;;;;30.05;46.57;101654.03;3725339;38;21301;-68